Time;durP1;ratioP1;P1;durP2;ratioP2;P2;SDS_P1;SDS_P2;PMS_P1;PMS_P2;Temp;Humidity;BMP_temperature;BMP_pressure;BME280_temperature;BME280_humidity;BME280_pressure;Samples;Min_cycle;Max_cycle;Signal;HPM_P1;HPM_P2
2023/07/22 00:01:30;;;;;;;4.40;4.00;;;;;;;26.02;59.10;98687.59;5074731;28;20094;-82
2023/07/22 00:04:14;;;;;;;5.03;3.20;;;;;;;26.46;58.30;98696.78;5084667;28;20424;-82
2023/07/22 00:06:58;;;;;;;4.95;4.00;;;;;;;26.38;59.21;98682.16;5080229;28;20050;-81
2023/07/22 00:09:43;;;;;;;4.13;3.45;;;;;;;26.74;58.31;98687.72;5080400;28;20046;-83
2023/07/22 00:12:27;;;;;;;5.13;3.90;;;;;;;26.63;58.88;98682.59;5079044;28;20398;-82
2023/07/22 00:15:14;;;;;;;4.80;3.65;;;;;;;26.85;58.30;98680.94;5084407;28;20086;-82
2023/07/22 00:17:58;;;;;;;4.63;3.67;;;;;;;26.69;58.29;98672.47;5075748;28;20082;-82
2023/07/22 00:20:42;;;;;;;3.85;3.13;;;;;;;26.85;58.18;98672.88;5077004;28;20037;-82
2023/07/22 00:23:26;;;;;;;4.80;3.30;;;;;;;26.64;58.29;98678.78;5082642;28;20440;-82
2023/07/22 00:26:10;;;;;;;4.65;3.67;;;;;;;26.45;58.62;98672.84;5078204;28;20039;-82
2023/07/22 00:28:54;;;;;;;4.38;3.10;;;;;;;26.60;58.52;98664.38;5084317;28;20443;-83
2023/07/22 00:31:38;;;;;;;4.18;3.40;;;;;;;26.63;58.69;98658.38;5084984;28;20055;-82
2023/07/22 00:34:23;;;;;;;3.60;3.15;;;;;;;26.69;58.20;98658.22;5082601;28;20129;-82
2023/07/22 00:37:07;;;;;;;5.28;3.63;;;;;;;26.52;58.58;98657.03;5088027;28;20047;-82
2023/07/22 00:39:51;;;;;;;4.15;3.63;;;;;;;26.65;58.53;98658.06;5081463;28;20097;-83
2023/07/22 00:42:35;;;;;;;4.75;3.78;;;;;;;26.46;59.00;98661.78;5078736;28;20102;-82
2023/07/22 00:45:19;;;;;;;4.65;3.78;;;;;;;26.28;59.60;98650.13;5078234;28;20142;-81
2023/07/22 00:48:05;;;;;;;6.25;3.42;;;;;;;26.38;59.68;98654.44;5083366;28;20051;-82
2023/07/22 00:50:49;;;;;;;6.47;3.80;;;;;;;26.37;59.12;98653.69;5084136;28;20055;-83
2023/07/22 00:53:33;;;;;;;4.05;3.42;;;;;;;26.33;59.61;98644.59;5079499;28;20524;-83
2023/07/22 00:56:17;;;;;;;5.43;3.55;;;;;;;26.05;59.83;98642.06;5078691;28;20106;-83
2023/07/22 00:59:01;;;;;;;5.68;4.03;;;;;;;25.98;60.04;98636.34;5083472;28;20062;-83
2023/07/22 01:01:45;;;;;;;5.43;3.40;;;;;;;25.81;60.68;98635.13;5085203;28;20050;-84
2023/07/22 01:04:33;;;;;;;5.63;4.03;;;;;;;25.83;60.79;98629.44;5083987;28;20051;-84
2023/07/22 01:07:17;;;;;;;7.05;4.00;;;;;;;25.71;61.37;98626.53;5078691;28;20051;-84
2023/07/22 01:10:03;;;;;;;5.93;3.92;;;;;;;26.13;60.66;98626.28;5079436;28;20093;-84
2023/07/22 01:12:47;;;;;;;6.72;3.53;;;;;;;25.98;60.85;98605.97;5082733;28;20089;-84
2023/07/22 01:15:32;;;;;;;5.18;3.83;;;;;;;26.05;60.57;98598.28;5082519;28;20071;-83
2023/07/22 01:18:16;;;;;;;6.55;4.30;;;;;;;25.98;60.98;98590.63;5079044;28;20081;-84
2023/07/22 01:21:01;;;;;;;5.70;3.90;;;;;;;26.27;60.48;98589.38;5079223;28;20051;-83
2023/07/22 01:23:46;;;;;;;6.25;4.00;;;;;;;26.17;60.37;98593.13;5077192;28;20035;-84
2023/07/22 01:26:31;;;;;;;8.35;4.55;;;;;;;26.11;60.96;98583.56;5083310;28;20032;-84
2023/07/22 01:29:15;;;;;;;6.32;4.20;;;;;;;26.33;60.68;98585.41;5079457;28;20086;-84
2023/07/22 01:31:59;;;;;;;4.57;3.92;;;;;;;26.07;61.21;98583.38;5077897;28;20087;-84
2023/07/22 01:34:43;;;;;;;6.60;4.45;;;;;;;26.01;61.30;98581.94;5074531;28;20437;-83
2023/07/22 01:37:27;;;;;;;7.32;4.22;;;;;;;26.31;60.72;98573.41;5087501;28;20051;-83
2023/07/22 01:40:12;;;;;;;7.32;4.50;;;;;;;26.57;60.38;98580.75;5081393;28;20410;-83
2023/07/22 01:42:56;;;;;;;6.65;4.38;;;;;;;26.19;60.77;98582.84;5083273;28;20104;-85
2023/07/22 01:45:40;;;;;;;4.15;3.67;;;;;;;26.36;60.66;98560.59;5084491;28;20085;-84
2023/07/22 01:48:24;;;;;;;6.28;4.38;;;;;;;26.52;60.19;98565.53;5077821;28;20577;-83
2023/07/22 01:51:08;;;;;;;6.03;4.38;;;;;;;26.43;60.59;98559.34;5081142;28;20063;-82
2023/07/22 01:53:53;;;;;;;8.68;4.47;;;;;;;26.17;60.84;98552.00;5079552;28;20046;-83
2023/07/22 01:56:37;;;;;;;6.63;4.45;;;;;;;26.27;60.41;98548.22;5085064;28;20119;-83
2023/07/22 01:59:21;;;;;;;7.63;4.43;;;;;;;26.36;60.21;98544.47;5079845;28;20090;-82
2023/07/22 02:02:05;;;;;;;6.32;4.55;;;;;;;26.48;60.00;98540.38;5076315;28;20039;-82
2023/07/22 02:04:49;;;;;;;6.32;5.07;;;;;;;26.41;59.89;98540.03;5081261;28;20409;-82
2023/07/22 02:07:33;;;;;;;4.60;4.10;;;;;;;26.18;60.54;98538.22;5078232;28;20516;-82
2023/07/22 02:10:17;;;;;;;6.25;4.10;;;;;;;26.29;60.23;98538.72;5077117;28;20174;-82
2023/07/22 02:13:03;;;;;;;4.68;4.03;;;;;;;26.05;60.63;98533.72;5075076;28;20094;-82
2023/07/22 02:15:47;;;;;;;8.30;4.00;;;;;;;26.29;60.01;98530.66;5080618;28;20071;-82
2023/07/22 02:18:32;;;;;;;6.47;4.03;;;;;;;26.54;59.28;98522.19;5072801;28;20071;-81
2023/07/22 02:21:15;;;;;;;5.97;4.03;;;;;;;26.24;59.33;98511.97;5078988;28;20090;-82
2023/07/22 02:23:59;;;;;;;4.72;3.75;;;;;;;25.62;60.60;98508.22;5080872;28;20035;-82
2023/07/22 02:26:45;;;;;;;5.28;3.40;;;;;;;25.66;60.73;98509.97;5074870;28;20040;-82
2023/07/22 02:29:31;;;;;;;5.03;3.38;;;;;;;25.70;60.64;98510.13;5076562;28;20105;-82
2023/07/22 02:32:15;;;;;;;4.65;3.50;;;;;;;25.83;60.35;98513.06;5081086;28;20039;-83
2023/07/22 02:34:59;;;;;;;3.67;2.97;;;;;;;25.76;60.66;98502.75;5081635;28;20541;-82
2023/07/22 02:37:43;;;;;;;5.03;3.88;;;;;;;25.81;60.35;98506.09;5079499;28;20088;-81
2023/07/22 02:40:27;;;;;;;5.38;3.83;;;;;;;25.53;60.45;98506.25;5076478;28;20562;-82
2023/07/22 02:43:11;;;;;;;5.63;3.92;;;;;;;25.63;60.69;98499.81;5078096;28;20513;-81
2023/07/22 02:45:55;;;;;;;5.22;3.47;;;;;;;26.05;59.83;98499.53;5079804;28;20497;-82
2023/07/22 02:48:39;;;;;;;4.95;3.47;;;;;;;26.05;60.28;98502.22;5078415;28;20036;-82
2023/07/22 02:51:23;;;;;;;5.45;3.58;;;;;;;26.03;60.14;98495.56;5079901;28;20512;-82
2023/07/22 02:54:07;;;;;;;5.47;4.22;;;;;;;25.72;60.38;98483.75;5082466;28;20101;-83
2023/07/22 02:56:51;;;;;;;8.07;3.95;;;;;;;25.62;60.79;98479.44;5075167;28;20035;-82
2023/07/22 02:59:35;;;;;;;4.15;3.50;;;;;;;25.57;61.17;98490.31;5078234;28;20167;-81
2023/07/22 03:02:18;;;;;;;;;;;;;;;25.75;61.10;98482.34;5076600;28;20540;-81
2023/07/22 03:05:07;;;;;;;4.65;3.35;;;;;;;25.21;61.83;98483.91;5075580;28;19962;-82
2023/07/22 03:07:53;;;;;;;4.45;3.60;;;;;;;25.29;61.84;98476.22;5080551;28;20118;-83
2023/07/22 03:10:37;;;;;;;4.93;4.13;;;;;;;25.70;61.07;98471.72;5085056;28;20117;-83
2023/07/22 03:13:20;;;;;;;5.65;3.58;;;;;;;25.40;61.83;98466.81;5081100;28;20497;-82
2023/07/22 03:16:04;;;;;;;5.70;3.92;;;;;;;25.94;60.88;98466.75;5083730;28;20062;-83
2023/07/22 03:18:49;;;;;;;5.88;4.40;;;;;;;25.91;60.94;98463.91;5081548;28;20066;-82
2023/07/22 03:21:33;;;;;;;5.43;3.83;;;;;;;26.03;61.04;98469.50;5079111;28;20085;-81
2023/07/22 03:24:17;;;;;;;6.57;4.38;;;;;;;26.12;60.94;98466.81;5084975;28;20120;-82
2023/07/22 03:27:01;;;;;;;5.28;3.78;;;;;;;26.27;60.94;98456.78;5079420;28;20567;-82
2023/07/22 03:29:44;;;;;;;;;;;;;;;26.23;60.68;98459.28;5079108;28;20081;-81
2023/07/22 03:32:29;;;;;;;4.78;3.25;;;;;;;25.91;61.36;98463.91;5081618;28;20153;-82
2023/07/22 03:35:13;;;;;;;4.75;3.42;;;;;;;26.09;61.32;98451.31;5085895;28;20496;-83
2023/07/22 03:37:58;;;;;;;5.00;3.47;;;;;;;25.97;61.73;98448.44;5083434;28;20058;-82
2023/07/22 03:40:42;;;;;;;3.53;2.97;;;;;;;26.05;61.60;98447.69;5086194;28;20089;-82
2023/07/22 03:43:26;;;;;;;3.08;2.47;;;;;;;26.02;61.77;98443.69;5082844;28;20047;-82
2023/07/22 03:46:10;;;;;;;2.60;2.40;;;;;;;26.39;60.79;98438.09;5082434;28;20031;-82
2023/07/22 03:48:54;;;;;;;4.00;2.80;;;;;;;26.08;61.61;98434.38;5083000;28;20763;-81
2023/07/22 03:51:37;;;;;;;5.15;2.95;;;;;;;26.05;61.54;98426.94;5080265;28;20119;-81
2023/07/22 03:54:21;;;;;;;5.13;3.58;;;;;;;26.18;61.38;98435.22;5081320;28;20489;-81
2023/07/22 03:57:06;;;;;;;4.07;3.30;;;;;;;26.13;61.54;98429.94;5080792;28;20546;-81
2023/07/22 03:59:50;;;;;;;3.47;3.03;;;;;;;26.52;61.06;98428.28;5077049;28;20047;-80
2023/07/22 04:02:34;;;;;;;6.47;3.42;;;;;;;26.32;61.38;98433.19;5079918;28;20047;-81
2023/07/22 04:05:18;;;;;;;5.45;4.40;;;;;;;26.03;61.89;98422.97;5085994;28;20043;-81
2023/07/22 04:08:02;;;;;;;5.88;4.13;;;;;;;25.95;61.57;98416.50;5078448;28;20051;-81
2023/07/22 04:10:56;;;;;;;7.63;4.40;;;;;;;26.31;61.24;98418.16;5081214;28;20093;-81
2023/07/22 04:13:40;;;;;;;5.80;4.07;;;;;;;26.21;61.46;98396.94;5082335;28;20528;-80
2023/07/22 04:16:25;;;;;;;9.40;4.75;;;;;;;26.08;63.18;98412.09;5081767;28;20124;-82
2023/07/22 04:19:09;;;;;;;7.82;5.38;;;;;;;26.33;60.94;98409.78;5079930;28;20043;-82
2023/07/22 04:21:54;;;;;;;6.63;5.05;;;;;;;26.30;61.33;98400.44;5083836;28;20047;-82
2023/07/22 04:24:38;;;;;;;9.55;5.18;;;;;;;26.15;61.43;98393.59;5084928;28;20079;-82
2023/07/22 04:27:22;;;;;;;10.07;5.18;;;;;;;26.35;60.76;98389.53;5077453;28;20528;-82
2023/07/22 04:30:07;;;;;;;6.28;4.30;;;;;;;26.55;60.78;98381.94;5082023;28;20513;-81
2023/07/22 04:32:51;;;;;;;6.35;4.68;;;;;;;26.17;60.90;98385.25;5079892;28;20436;-83
2023/07/22 04:35:37;;;;;;;7.95;4.53;;;;;;;25.92;61.57;98385.63;5082414;28;20398;-83
2023/07/22 04:38:21;;;;;;;8.20;5.68;;;;;;;25.86;61.43;98386.09;5075816;28;20051;-81
2023/07/22 04:41:05;;;;;;;9.75;5.32;;;;;;;25.88;61.54;98375.81;5077546;28;20422;-82
2023/07/22 04:43:51;;;;;;;6.53;4.80;;;;;;;25.94;61.71;98366.47;5080963;28;20472;-83
2023/07/22 04:46:35;;;;;;;9.85;5.45;;;;;;;26.01;62.75;98372.22;5079653;28;20043;-81
2023/07/22 04:49:19;;;;;;;6.80;5.05;;;;;;;26.18;61.15;98366.09;5076770;28;20063;-81
2023/07/22 04:52:03;;;;;;;9.52;5.13;;;;;;;25.84;61.41;98372.94;5081318;28;20097;-82
2023/07/22 04:54:47;;;;;;;9.23;5.18;;;;;;;25.86;61.54;98367.25;5071861;28;20047;-80
2023/07/22 04:57:31;;;;;;;10.07;5.38;;;;;;;25.51;61.83;98368.75;5078453;28;20047;-82
2023/07/22 05:00:16;;;;;;;9.15;5.10;;;;;;;25.47;62.88;98372.34;5077277;28;20039;-82
2023/07/22 05:03:00;;;;;;;8.77;5.43;;;;;;;25.40;62.50;98375.47;5082084;28;20058;-82
2023/07/22 05:05:44;;;;;;;7.95;5.30;;;;;;;25.31;62.80;98366.56;5080000;28;20039;-81
2023/07/22 05:08:28;;;;;;;9.25;5.40;;;;;;;25.56;62.57;98358.97;5076218;28;20044;-82
2023/07/22 05:11:12;;;;;;;8.00;5.00;;;;;;;25.38;62.77;98364.25;5079084;28;20043;-81
2023/07/22 05:13:56;;;;;;;8.82;5.13;;;;;;;25.77;62.57;98351.91;5078922;28;20036;-82
2023/07/22 05:16:40;;;;;;;7.63;5.20;;;;;;;26.17;61.65;98353.75;5077798;28;20149;-82
2023/07/22 05:19:25;;;;;;;6.30;4.50;;;;;;;25.75;62.67;98343.38;5082321;28;20043;-83
2023/07/22 05:22:09;;;;;;;9.00;5.40;;;;;;;25.43;63.08;98350.66;5081653;28;20043;-83
2023/07/22 05:24:53;;;;;;;10.32;5.53;;;;;;;26.15;62.58;98349.78;5082347;28;20567;-83
2023/07/22 05:27:37;;;;;;;9.52;5.32;;;;;;;25.51;63.34;98344.56;5077977;28;20405;-82
2023/07/22 05:30:22;;;;;;;8.32;5.32;;;;;;;25.64;63.06;98336.69;5079289;28;20511;-83
2023/07/22 05:33:06;;;;;;;6.88;5.03;;;;;;;25.68;63.67;98332.28;5075479;28;20043;-82
2023/07/22 05:35:50;;;;;;;12.02;5.65;;;;;;;25.85;63.08;98330.75;5075968;28;20036;-83
2023/07/22 05:38:34;;;;;;;7.13;5.28;;;;;;;25.59;63.42;98324.19;5077037;28;20508;-84
2023/07/22 05:41:18;;;;;;;9.73;5.50;;;;;;;25.71;63.33;98323.59;5081773;28;20048;-83
2023/07/22 05:44:02;;;;;;;8.02;5.65;;;;;;;25.91;62.49;98319.53;5078497;28;20552;-82
2023/07/22 05:46:46;;;;;;;6.63;4.88;;;;;;;25.86;62.92;98321.56;5076087;28;20166;-83
2023/07/22 05:49:30;;;;;;;8.82;5.30;;;;;;;26.13;62.86;98325.88;5077692;28;20093;-82
2023/07/22 05:52:14;;;;;;;10.52;5.60;;;;;;;26.13;62.38;98314.31;5080399;28;20083;-82
2023/07/22 05:54:58;;;;;;;8.95;5.82;;;;;;;25.80;63.13;98321.72;5080029;28;20089;-82
2023/07/22 05:57:42;;;;;;;8.15;5.00;;;;;;;25.81;63.21;98317.94;5078863;28;20047;-82
2023/07/22 06:00:26;;;;;;;8.25;5.28;;;;;;;26.13;62.53;98308.94;5075105;28;20505;-82
2023/07/22 06:03:10;;;;;;;7.78;5.43;;;;;;;25.78;62.62;98299.75;5076914;28;20093;-84
2023/07/22 06:05:54;;;;;;;6.63;4.95;;;;;;;25.92;63.02;98304.16;5083491;28;20039;-84
2023/07/22 06:08:38;;;;;;;8.20;5.03;;;;;;;25.91;63.50;98303.41;5079887;28;20086;-84
2023/07/22 06:11:22;;;;;;;8.73;5.20;;;;;;;26.41;62.74;98303.28;5078154;28;20047;-84
2023/07/22 06:14:08;;;;;;;8.48;5.90;;;;;;;26.54;62.38;98293.44;5080552;28;20048;-84
2023/07/22 06:16:51;;;;;;;9.07;6.00;;;;;;;26.33;62.52;98289.50;5074468;28;20052;-85
2023/07/22 06:19:35;;;;;;;8.55;5.57;;;;;;;26.62;62.90;98282.66;5075490;28;20058;-87
2023/07/22 06:22:19;;;;;;;7.68;5.40;;;;;;;26.74;62.21;98273.91;5074030;28;20052;-84
2023/07/22 06:25:05;;;;;;;7.05;5.00;;;;;;;26.69;62.80;98275.97;5069517;28;20081;-85
2023/07/22 06:27:49;;;;;;;8.35;5.30;;;;;;;26.69;62.92;98271.41;5075170;28;21347;-85
2023/07/22 06:30:33;;;;;;;9.43;6.13;;;;;;;26.56;62.85;98273.19;5079995;28;20085;-86
2023/07/22 06:33:17;;;;;;;9.95;5.95;;;;;;;26.53;63.02;98273.81;5078618;28;20043;-85
2023/07/22 06:36:01;;;;;;;7.65;5.55;;;;;;;27.09;62.16;98273.81;5080132;28;20071;-79
2023/07/22 06:38:44;;;;;;;10.88;6.68;;;;;;;26.88;62.52;98268.34;5074065;28;20036;-79
2023/07/22 06:41:29;;;;;;;11.30;6.78;;;;;;;28.03;60.37;98263.13;5077535;28;20038;-79
2023/07/22 06:44:12;;;;;;;14.07;7.32;;;;;;;28.16;59.49;98261.28;5078831;28;20043;-80
2023/07/22 06:46:56;;;;;;;10.65;6.72;;;;;;;28.29;59.48;98255.94;5075575;28;20060;-80
2023/07/22 06:49:41;;;;;;;8.60;6.72;;;;;;;27.97;59.88;98256.34;5073601;28;20386;-79
2023/07/22 06:52:25;;;;;;;13.07;7.63;;;;;;;27.38;60.76;98255.31;5081956;28;20517;-79
2023/07/22 06:55:09;;;;;;;12.13;8.15;;;;;;;27.56;60.25;98261.41;5077345;28;20051;-78
2023/07/22 06:57:56;;;;;;;12.63;8.70;;;;;;;26.99;61.55;98249.94;5080232;28;20044;-79
2023/07/22 07:00:40;;;;;;;12.10;8.23;;;;;;;27.00;61.55;98240.75;5082037;28;20098;-80
2023/07/22 07:03:24;;;;;;;13.80;8.52;;;;;;;27.06;61.41;98255.63;5078039;28;20043;-79
2023/07/22 07:06:08;;;;;;;13.50;8.60;;;;;;;26.85;62.06;98246.66;5083939;28;20556;-80
2023/07/22 07:08:52;;;;;;;12.07;8.80;;;;;;;27.39;60.89;98248.81;5084016;28;20098;-78
2023/07/22 07:11:36;;;;;;;13.23;9.25;;;;;;;26.79;61.66;98246.81;5086044;28;20054;-80
2023/07/22 07:14:20;;;;;;;13.13;8.60;;;;;;;26.52;62.40;98240.72;5081744;28;20120;-78
2023/07/22 07:17:04;;;;;;;14.50;8.38;;;;;;;26.76;62.40;98244.00;5078242;28;20035;-79
2023/07/22 07:19:48;;;;;;;15.43;8.80;;;;;;;27.16;61.65;98243.69;5079473;28;20154;-79
2023/07/22 07:22:32;;;;;;;12.15;8.75;;;;;;;26.80;62.32;98239.53;5085111;28;20110;-79
2023/07/22 07:25:16;;;;;;;11.93;7.97;;;;;;;27.04;62.30;98238.19;5082798;28;20031;-80
2023/07/22 07:28:00;;;;;;;12.25;7.85;;;;;;;27.09;62.76;98251.47;5080785;28;20153;-80
2023/07/22 07:30:44;;;;;;;13.13;7.90;;;;;;;27.09;63.00;98241.50;5084412;28;20034;-80
2023/07/22 07:33:29;;;;;;;11.38;7.03;;;;;;;26.76;62.89;98233.22;5081039;28;20421;-80
2023/07/22 07:36:13;;;;;;;13.88;7.95;;;;;;;26.51;63.47;98228.38;5088626;28;20608;-79
2023/07/22 07:38:57;;;;;;;11.27;7.20;;;;;;;26.39;63.26;98217.47;5081578;28;20543;-80
2023/07/22 07:41:41;;;;;;;8.80;6.30;;;;;;;26.71;63.17;98211.84;5083192;28;20512;-80
2023/07/22 07:44:25;;;;;;;9.88;6.50;;;;;;;26.36;63.12;98221.63;5082066;28;20047;-79
2023/07/22 07:47:09;;;;;;;8.23;5.82;;;;;;;26.48;63.89;98222.84;5081096;28;20532;-80
2023/07/22 07:49:53;;;;;;;7.25;4.88;;;;;;;26.64;63.12;98215.06;5079998;28;20055;-80
2023/07/22 07:52:38;;;;;;;6.10;4.55;;;;;;;26.67;62.92;98212.50;5080329;28;20418;-80
2023/07/22 07:55:22;;;;;;;7.43;4.60;;;;;;;26.59;62.58;98216.03;5079336;28;20039;-80
2023/07/22 07:58:06;;;;;;;6.10;4.35;;;;;;;26.70;62.75;98210.28;5082286;28;20508;-80
2023/07/22 08:00:50;;;;;;;6.45;4.15;;;;;;;26.74;62.97;98214.69;5080208;28;20101;-80
2023/07/22 08:03:35;;;;;;;6.20;4.50;;;;;;;26.48;63.96;98217.47;5082647;28;20062;-80
2023/07/22 08:06:19;;;;;;;7.93;4.45;;;;;;;26.46;63.61;98206.22;5084458;28;20043;-80
2023/07/22 08:09:05;;;;;;;6.47;4.32;;;;;;;26.54;63.88;98216.19;5085558;28;20409;-80
2023/07/22 08:11:49;;;;;;;7.70;5.05;;;;;;;26.45;64.22;98212.72;5077751;28;20036;-81
2023/07/22 08:14:33;;;;;;;7.45;4.90;;;;;;;26.33;63.85;98216.09;5082009;28;20043;-80
2023/07/22 08:17:17;;;;;;;7.53;4.90;;;;;;;26.54;63.87;98215.41;5088198;28;20556;-82
2023/07/22 08:20:01;;;;;;;6.10;3.97;;;;;;;26.77;64.10;98210.56;5081304;28;20059;-82
2023/07/22 08:22:45;;;;;;;8.63;4.60;;;;;;;26.65;63.66;98213.94;5081242;28;20129;-81
2023/07/22 08:25:29;;;;;;;6.28;4.50;;;;;;;26.84;64.27;98205.47;5080799;28;20094;-81
2023/07/22 08:28:13;;;;;;;7.95;4.43;;;;;;;26.64;64.15;98215.06;5088347;28;20048;-81
2023/07/22 08:30:58;;;;;;;5.55;4.50;;;;;;;27.10;63.99;98204.56;5080263;28;20093;-80
2023/07/22 08:33:42;;;;;;;5.43;4.05;;;;;;;27.21;62.99;98213.06;5081919;28;20059;-81
2023/07/22 08:36:26;;;;;;;8.18;3.88;;;;;;;27.21;63.70;98205.78;5082319;28;20124;-81
2023/07/22 08:39:10;;;;;;;5.63;4.28;;;;;;;27.59;63.15;98214.16;5078187;28;20119;-81
2023/07/22 08:41:56;;;;;;;6.13;3.83;;;;;;;27.62;63.42;98211.59;5081199;28;20173;-80
2023/07/22 08:44:43;;;;;;;5.43;4.28;;;;;;;28.02;62.61;98215.69;5082019;28;20074;-81
2023/07/22 08:47:29;;;;;;;5.72;4.13;;;;;;;27.85;62.35;98213.94;5078763;28;20090;-81
2023/07/22 08:50:20;;;;;;;4.20;3.33;;;;;;;27.69;62.62;98208.34;5084266;28;20042;-81
2023/07/22 08:53:05;;;;;;;5.45;3.85;;;;;;;28.21;61.93;98211.75;5082559;28;20401;-81
2023/07/22 08:55:49;;;;;;;6.28;3.65;;;;;;;27.93;61.11;98204.22;5079380;28;20059;-80
2023/07/22 08:58:34;;;;;;;4.82;3.65;;;;;;;28.62;61.15;98204.63;5083815;28;20043;-80
2023/07/22 09:01:18;;;;;;;5.28;3.60;;;;;;;27.91;62.14;98201.81;5084425;28;20046;-81
2023/07/22 09:04:03;;;;;;;5.05;4.15;;;;;;;27.87;62.13;98197.41;5078644;28;20051;-81
2023/07/22 09:06:48;;;;;;;5.90;3.92;;;;;;;28.46;61.39;98203.69;5081519;28;20093;-80
2023/07/22 09:09:32;;;;;;;6.43;3.63;;;;;;;28.70;60.92;98199.47;5087807;28;20547;-81
2023/07/22 09:12:17;;;;;;;5.20;4.07;;;;;;;28.25;61.70;98188.38;5076196;28;20082;-81
2023/07/22 09:15:01;;;;;;;7.55;4.38;;;;;;;27.91;61.86;98198.34;5085490;28;20550;-80
2023/07/22 09:17:46;;;;;;;5.13;4.18;;;;;;;27.83;61.60;98193.81;5081639;28;20085;-80
2023/07/22 09:20:31;;;;;;;5.40;3.90;;;;;;;27.67;62.35;98194.41;5084175;28;20043;-81
2023/07/22 09:23:15;;;;;;;5.65;4.57;;;;;;;27.37;62.87;98197.91;5080717;28;20055;-81
2023/07/22 09:26:13;;;;;;;5.18;4.00;;;;;;;27.72;62.50;98191.53;5076399;28;20198;-79
2023/07/22 09:28:58;;;;;;;5.88;3.78;;;;;;;27.37;62.67;98186.38;5071653;28;20039;-79
2023/07/22 09:31:51;;;;;;;4.90;3.63;;;;;;;27.62;62.69;98175.75;5074237;28;20092;-79
2023/07/22 09:34:35;;;;;;;6.63;4.00;;;;;;;27.90;62.69;98181.38;5079417;28;20402;-80
2023/07/22 09:37:18;;;;;;;5.85;3.63;;;;;;;27.60;63.03;98183.38;5085558;28;20464;-79
2023/07/22 09:40:13;;;;;;;5.22;4.07;;;;;;;27.80;63.42;98179.88;5076204;28;20399;-78
2023/07/22 09:43:02;;;;;;;4.80;3.97;;;;;;;27.68;62.59;98179.81;5078263;28;20043;-79
2023/07/22 09:45:48;;;;;;;5.32;3.55;;;;;;;27.45;63.20;98173.94;5079829;28;20381;-79
2023/07/22 09:48:43;;;;;;;5.88;3.67;;;;;;;27.64;63.72;98168.13;5075293;28;20398;-79
2023/07/22 09:51:33;;;;;;;5.60;3.72;;;;;;;27.40;63.76;98180.31;5079800;28;20039;-79
2023/07/22 09:54:19;;;;;;;5.35;3.63;;;;;;;27.12;64.23;98175.44;5079401;28;20113;-79
2023/07/22 09:57:04;;;;;;;5.47;4.05;;;;;;;27.40;63.93;98174.94;5078613;28;20093;-80
2023/07/22 09:59:51;;;;;;;5.85;3.67;;;;;;;27.69;63.58;98167.91;5077218;28;20059;-79
2023/07/22 10:02:38;;;;;;;6.10;3.85;;;;;;;28.11;62.98;98164.34;5082818;28;20097;-80
2023/07/22 10:05:24;;;;;;;4.97;3.55;;;;;;;28.22;63.13;98164.75;5078059;28;20105;-80
2023/07/22 10:08:10;;;;;;;6.35;3.67;;;;;;;28.05;63.46;98166.47;5076921;28;20055;-81
2023/07/22 10:10:57;;;;;;;5.35;3.40;;;;;;;29.33;61.93;98155.09;5082472;28;20508;-80
2023/07/22 10:13:42;;;;;;;4.53;3.45;;;;;;;28.90;62.42;98160.81;5077751;28;20038;-80
2023/07/22 10:16:26;;;;;;;5.35;3.78;;;;;;;28.84;62.59;98156.72;5075442;28;20035;-80
2023/07/22 10:19:11;;;;;;;5.35;3.78;;;;;;;29.49;61.12;98147.88;5076276;28;20047;-79
2023/07/22 10:21:55;;;;;;;4.30;3.53;;;;;;;29.08;61.56;98145.13;5077027;28;20130;-80
2023/07/22 10:24:41;;;;;;;4.43;3.03;;;;;;;29.03;61.42;98152.66;5073220;28;20047;-80
2023/07/22 10:27:26;;;;;;;5.45;3.40;;;;;;;29.34;61.82;98135.84;5076518;28;20047;-79
2023/07/22 10:30:11;;;;;;;4.63;3.08;;;;;;;29.77;60.94;98132.78;5077691;28;20039;-80
2023/07/22 10:32:56;;;;;;;7.82;3.65;;;;;;;30.00;60.53;98133.00;5075667;28;20531;-79
2023/07/22 10:35:47;;;;;;;3.83;3.05;;;;;;;30.22;60.14;98138.97;5081184;28;20405;-78
2023/07/22 10:38:32;;;;;;;6.30;3.50;;;;;;;29.92;60.97;98137.44;5079704;28;20059;-79
2023/07/22 10:41:17;;;;;;;4.68;3.55;;;;;;;30.08;59.80;98144.06;5074362;28;20047;-79
2023/07/22 10:44:01;;;;;;;4.95;3.53;;;;;;;29.90;60.54;98128.88;5077625;28;20055;-79
2023/07/22 10:46:57;;;;;;;4.60;3.33;;;;;;;29.81;60.93;98130.16;5077921;28;20114;-79
2023/07/22 10:49:47;;;;;;;4.00;3.42;;;;;;;30.58;59.83;98129.03;5074323;28;20051;-80
2023/07/22 10:52:42;;;;;;;5.70;3.78;;;;;;;29.74;60.29;98128.84;5077794;28;20067;-80
2023/07/22 10:55:26;;;;;;;3.92;3.38;;;;;;;30.40;60.37;98127.81;5078302;28;21704;-79
2023/07/22 10:58:10;;;;;;;4.97;3.80;;;;;;;30.56;60.05;98120.47;5078150;28;20047;-80
2023/07/22 11:00:54;;;;;;;6.82;4.20;;;;;;;30.29;59.83;98127.56;5080507;28;20043;-79
2023/07/22 11:04:03;;;;;;;6.55;4.20;;;;;;;30.43;59.87;98122.50;5077855;28;20405;-79
2023/07/22 11:06:48;;;;;;;4.72;3.83;;;;;;;30.37;59.93;98117.69;5078448;28;20059;-80
2023/07/22 11:09:34;;;;;;;4.28;3.47;;;;;;;30.10;60.30;98120.13;5076636;28;20040;-80
2023/07/22 11:12:20;;;;;;;5.65;3.92;;;;;;;30.30;59.54;98119.09;5074436;28;20039;-79
2023/07/22 11:15:05;;;;;;;5.03;3.88;;;;;;;29.85;60.51;98117.53;5078169;28;20098;-79
2023/07/22 11:17:49;;;;;;;4.70;3.67;;;;;;;29.71;61.01;98115.22;5081715;28;20047;-78
2023/07/22 11:20:33;;;;;;;5.43;3.38;;;;;;;29.15;61.79;98109.44;5078487;28;20050;-78
2023/07/22 11:23:17;;;;;;;4.47;3.33;;;;;;;29.75;61.83;98108.00;5081116;28;20089;-78
2023/07/22 11:26:03;;;;;;;4.20;3.65;;;;;;;29.75;61.46;98102.59;5079393;28;20123;-78
2023/07/22 11:28:47;;;;;;;6.75;3.80;;;;;;;30.16;61.72;98099.78;5079840;28;20094;-78
2023/07/22 11:31:32;;;;;;;4.57;3.75;;;;;;;30.13;61.43;98090.44;5075428;28;20051;-79
2023/07/22 11:34:22;;;;;;;4.07;3.40;;;;;;;29.87;62.02;98085.50;5079081;28;20667;-79
2023/07/22 11:37:06;;;;;;;4.82;3.90;;;;;;;29.86;61.95;98083.94;5076548;28;20048;-79
2023/07/22 11:39:50;;;;;;;4.68;3.50;;;;;;;29.91;62.12;98083.69;5076853;28;20163;-81
2023/07/22 11:42:34;;;;;;;5.05;3.20;;;;;;;30.35;61.47;98082.84;5084629;28;20035;-83
2023/07/22 11:45:19;;;;;;;4.30;3.30;;;;;;;30.35;61.17;98075.53;5083830;28;20097;-83
2023/07/22 11:48:09;;;;;;;3.90;3.50;;;;;;;30.18;61.61;98073.16;5082468;28;20513;-84
2023/07/22 11:50:59;;;;;;;3.63;3.20;;;;;;;29.94;61.87;98066.75;5082850;28;20504;-82
2023/07/22 11:53:47;;;;;;;3.80;3.40;;;;;;;29.84;61.52;98061.84;5080583;28;20097;-82
2023/07/22 11:56:32;;;;;;;5.03;3.08;;;;;;;30.06;61.45;98061.28;5083340;28;20124;-82
2023/07/22 11:59:16;;;;;;;5.03;4.03;;;;;;;30.28;61.23;98061.81;5078407;28;20516;-82
2023/07/22 12:02:02;;;;;;;4.32;3.63;;;;;;;30.39;61.19;98055.88;5080009;28;20213;-83
2023/07/22 12:05:01;;;;;;;3.80;3.30;;;;;;;30.25;60.78;98057.09;5078102;28;20158;-82
2023/07/22 12:07:45;;;;;;;6.03;3.80;;;;;;;30.04;60.83;98051.97;5075857;28;20418;-82
2023/07/22 12:10:29;;;;;;;4.18;3.78;;;;;;;30.84;59.87;98051.84;5076588;28;20043;-81
2023/07/22 12:13:13;;;;;;;4.38;3.97;;;;;;;30.70;59.68;98046.91;5079548;28;20074;-83
2023/07/22 12:16:05;;;;;;;4.47;3.72;;;;;;;30.84;59.44;98043.72;5078355;28;20821;-83
2023/07/22 12:18:49;;;;;;;4.32;3.90;;;;;;;30.19;59.59;98042.25;5078842;28;20172;-81
2023/07/22 12:21:34;;;;;;;6.50;3.97;;;;;;;29.84;59.96;98040.22;5081175;28;20055;-82
2023/07/22 12:24:18;;;;;;;5.25;3.90;;;;;;;30.10;60.21;98034.31;5079599;28;20058;-82
2023/07/22 12:27:03;;;;;;;4.63;4.10;;;;;;;29.65;60.48;98030.84;5077985;28;20477;-82
2023/07/22 12:29:47;;;;;;;4.93;4.40;;;;;;;29.53;60.21;98028.25;5080866;28;20030;-82
2023/07/22 12:32:31;;;;;;;4.43;4.03;;;;;;;29.85;60.46;98030.97;5083709;28;20081;-82
2023/07/22 12:35:15;;;;;;;5.43;3.90;;;;;;;29.66;60.15;98026.25;5082173;28;20136;-82
2023/07/22 12:37:59;;;;;;;4.75;3.92;;;;;;;29.41;60.50;98020.97;5082882;28;20314;-82
2023/07/22 12:40:43;;;;;;;7.65;3.28;;;;;;;29.50;61.43;98024.31;5080537;28;20047;-81
2023/07/22 12:43:27;;;;;;;11.05;4.03;;;;;;;29.60;61.01;98028.41;5080510;28;20042;-82
2023/07/22 12:46:11;;;;;;;4.35;2.92;;;;;;;29.85;60.64;98022.84;5079086;28;20520;-82
2023/07/22 12:48:55;;;;;;;4.65;3.13;;;;;;;29.46;61.05;98024.19;5084095;28;20104;-81
2023/07/22 12:51:39;;;;;;;4.80;3.17;;;;;;;29.42;61.54;98020.63;5084412;28;20070;-82
2023/07/22 12:54:23;;;;;;;5.10;3.25;;;;;;;29.38;61.36;98010.81;5078582;28;20136;-82
2023/07/22 12:57:07;;;;;;;4.63;3.88;;;;;;;29.03;61.48;98020.31;5081149;28;20051;-82